»·PEaware :: N920DD KDVT-UT25

N920DD :: KDVT-UT25

FLIGHT INFORMATION

Flight Status: Arrived
Operator: Privately registered:
United States
More flights under this callsign
Pilot: Daniel O. (11975)
Aircraft: PILATUS PC-12 EAGLE
(PC12)
More flights by this aircraft type
Origin: KDVT Phoenix Deer Valley
United States
Destination: UT25 Monument Valley
United States
More flights between these airports :: More routes between these airports
Route: DCT
File this flight plan on PilotEdge
Remarks:
Altitude:
(Current/Filed)
17,500ft
Speed:
(Current/Filed)
260kts
Departed: 02-Dec-19 08:55 PM
Arrived: 02-Dec-19 09:57 PM
Distance/Time
Traveled:
220nm/1:02
Distance/Time
To Go:
Arrived

Flight Plot

Page will automatically refresh every two minutes.

Flight plan parsing failed; only flown route is shown


Map Options




Map Legend


Flown Route
Filed Route
Departure Airport
Arrival Airport
Navaid (VOR, NDB)
Fix

Horizontal Profiles

Position Reports

Time Latitude Longitude Heading Altitude Ground
Speed
02-Dec-19 20:53 33.644343 -112.060081 232 5387ft 180kts
02-Dec-19 20:55 33.660339 -112.124955 353 5503ft 244kts
02-Dec-19 20:55 33.716426 -112.115864 14 5501ft 243kts
02-Dec-19 20:56 33.780728 -112.096316 14 6290ft 213kts
02-Dec-19 20:57 33.840448 -112.078157 14 6803ft 237kts
02-Dec-19 20:58 33.903553 -112.058935 14 7559ft 226kts
02-Dec-19 20:59 33.957574 -112.042517 14 9944ft 191kts
02-Dec-19 21:00 34.009918 -112.026265 10 11984ft 199kts
02-Dec-19 21:01 34.062337 -112.010400 6 14072ft 192kts
02-Dec-19 21:02 34.114438 -111.994544 5 16028ft 195kts
02-Dec-19 21:03 34.164614 -111.979252 4 17516ft 213kts
02-Dec-19 21:04 34.229596 -111.959510 7 17552ft 259kts
02-Dec-19 21:05 34.301269 -111.937303 7 17547ft 270kts
02-Dec-19 21:06 34.374660 -111.914668 7 17537ft 273kts
02-Dec-19 21:07 34.448280 -111.891948 7 17528ft 273kts
02-Dec-19 21:08 34.521770 -111.869228 7 17516ft 273kts
02-Dec-19 21:09 34.595364 -111.846463 7 17507ft 273kts
02-Dec-19 21:10 34.668962 -111.823629 7 17503ft 273kts
02-Dec-19 21:11 34.742908 -111.800667 7 17516ft 272kts
02-Dec-19 21:12 34.816429 -111.777722 6 17587ft 271kts
02-Dec-19 21:13 34.889446 -111.754985 6 17656ft 271kts
02-Dec-19 21:14 34.962574 -111.732163 6 17659ft 272kts
02-Dec-19 21:15 35.036178 -111.709121 6 17660ft 273kts
02-Dec-19 21:16 35.109623 -111.686090 6 17659ft 273kts
02-Dec-19 21:17 35.183297 -111.659480 10 17659ft 276kts
02-Dec-19 21:18 35.256112 -111.629573 11 17659ft 276kts
02-Dec-19 21:19 35.329012 -111.599565 11 17659ft 276kts
02-Dec-19 21:20 35.401741 -111.569574 11 17662ft 276kts
02-Dec-19 21:21 35.474486 -111.539517 11 17666ft 275kts
02-Dec-19 21:22 35.546030 -111.509905 11 17533ft 279kts
02-Dec-19 21:23 35.618926 -111.479657 10 17505ft 275kts
02-Dec-19 21:24 35.691433 -111.449543 10 17506ft 274kts
02-Dec-19 21:25 35.763734 -111.419447 10 17506ft 274kts
02-Dec-19 21:26 35.835962 -111.389319 10 17506ft 274kts
02-Dec-19 21:27 35.908321 -111.359071 10 17504ft 275kts
02-Dec-19 21:28 35.978095 -111.329868 11 17492ft 274kts
02-Dec-19 21:29 36.050408 -111.299522 11 17490ft 274kts
02-Dec-19 21:30 36.121808 -111.266185 34 17487ft 285kts
02-Dec-19 21:31 36.170374 -111.188361 50 17490ft 291kts
02-Dec-19 21:32 36.217404 -111.106626 50 17491ft 291kts
02-Dec-19 21:33 36.264226 -111.025161 50 17491ft 290kts
02-Dec-19 21:34 36.311187 -110.943353 50 17510ft 291kts
02-Dec-19 21:35 36.358019 -110.861481 50 17511ft 291kts
02-Dec-19 21:36 36.404900 -110.779399 50 17511ft 291kts
02-Dec-19 21:37 36.451752 -110.697033 50 17513ft 291kts
02-Dec-19 21:38 36.498353 -110.615015 50 17514ft 291kts
02-Dec-19 21:39 36.545263 -110.532258 50 17520ft 291kts
02-Dec-19 21:40 36.591887 -110.449783 50 17527ft 292kts
02-Dec-19 21:41 36.638715 -110.366789 50 17532ft 291kts
02-Dec-19 21:42 36.685154 -110.284265 51 17527ft 291kts
02-Dec-19 21:43 36.742253 -110.217938 26 17528ft 280kts
02-Dec-19 21:44 36.809010 -110.167353 23 17528ft 279kts
02-Dec-19 21:45 36.877277 -110.118993 22 16997ft 287kts
02-Dec-19 21:46 36.947512 -110.070675 22 16122ft 287kts
02-Dec-19 21:47 37.016709 -110.023660 22 14663ft 279kts
02-Dec-19 21:48 37.083467 -109.977736 24 12424ft 265kts
02-Dec-19 21:49 37.124618 -110.000236 244 10296ft 197kts
02-Dec-19 21:50 37.091616 -109.976992 69 8272ft 235kts
02-Dec-19 21:51 37.122944 -109.980350 256 7861ft 167kts
02-Dec-19 21:52 37.104463 -110.053201 251 7583ft 247kts
02-Dec-19 21:53 37.083822 -110.134879 252 6561ft 231kts
02-Dec-19 21:54 37.062523 -110.194639 218 5637ft 152kts
02-Dec-19 21:55 37.029082 -110.203761 172 5264ft 104kts
02-Dec-19 21:56 37.012017 -110.201714 267 5138ft 9kts
02-Dec-19 21:57 37.011879 -110.201912 171 5138ft 0kts
02-Dec-19 21:58 37.011879 -110.201912 172 5138ft 0kts
02-Dec-19 21:59 37.011879 -110.201912 172 5138ft 0kts

Navigation Log

Ident Type
Flight plan parsing failed, navigation log unavailable